sensor_id;sensor_type;location;lat;lon;timestamp;P1;durP1;ratioP1;P2;durP2;ratioP2
74530;SDS011;63010;55.668;37.878;2022-09-30T00:01:35;16.98;;;11.20;;
74530;SDS011;63010;55.668;37.878;2022-09-30T00:04:04;21.10;;;11.25;;
74530;SDS011;63010;55.668;37.878;2022-09-30T00:06:31;18.60;;;9.55;;
74530;SDS011;63010;55.668;37.878;2022-09-30T00:08:59;16.77;;;10.13;;
74530;SDS011;63010;55.668;37.878;2022-09-30T00:11:29;18.83;;;10.57;;
74530;SDS011;63010;55.668;37.878;2022-09-30T00:13:58;16.88;;;10.00;;
74530;SDS011;63010;55.668;37.878;2022-09-30T00:16:29;19.23;;;9.90;;
74530;SDS011;63010;55.668;37.878;2022-09-30T00:18:58;23.15;;;11.65;;
74530;SDS011;63010;55.668;37.878;2022-09-30T00:23:50;21.67;;;10.35;;
74530;SDS011;63010;55.668;37.878;2022-09-30T00:26:17;17.52;;;9.90;;
74530;SDS011;63010;55.668;37.878;2022-09-30T00:28:44;28.67;;;10.63;;
74530;SDS011;63010;55.668;37.878;2022-09-30T00:31:12;24.65;;;10.70;;
74530;SDS011;63010;55.668;37.878;2022-09-30T00:33:39;19.35;;;10.88;;
74530;SDS011;63010;55.668;37.878;2022-09-30T00:36:06;20.02;;;11.02;;
74530;SDS011;63010;55.668;37.878;2022-09-30T00:38:31;15.50;;;10.43;;
74530;SDS011;63010;55.668;37.878;2022-09-30T00:40:57;20.38;;;10.65;;
74530;SDS011;63010;55.668;37.878;2022-09-30T00:43:46;36.17;;;12.15;;
74530;SDS011;63010;55.668;37.878;2022-09-30T00:48:43;19.25;;;11.38;;
74530;SDS011;63010;55.668;37.878;2022-09-30T00:51:10;21.52;;;11.75;;
74530;SDS011;63010;55.668;37.878;2022-09-30T00:53:47;23.40;;;13.32;;
74530;SDS011;63010;55.668;37.878;2022-09-30T00:56:20;23.17;;;13.35;;
74530;SDS011;63010;55.668;37.878;2022-09-30T00:58:54;26.10;;;11.70;;
74530;SDS011;63010;55.668;37.878;2022-09-30T01:01:25;44.28;;;12.95;;
74530;SDS011;63010;55.668;37.878;2022-09-30T01:03:52;32.20;;;12.63;;
74530;SDS011;63010;55.668;37.878;2022-09-30T01:06:22;20.55;;;11.23;;
74530;SDS011;63010;55.668;37.878;2022-09-30T01:08:49;26.48;;;11.93;;
74530;SDS011;63010;55.668;37.878;2022-09-30T01:11:16;36.30;;;12.60;;
74530;SDS011;63010;55.668;37.878;2022-09-30T01:13:42;66.13;;;12.23;;
74530;SDS011;63010;55.668;37.878;2022-09-30T01:16:24;56.33;;;11.68;;
74530;SDS011;63010;55.668;37.878;2022-09-30T01:28:06;33.25;;;11.65;;
74530;SDS011;63010;55.668;37.878;2022-09-30T01:31:02;21.98;;;9.98;;
74530;SDS011;63010;55.668;37.878;2022-09-30T01:46:52;19.75;;;9.50;;
74530;SDS011;63010;55.668;37.878;2022-09-30T01:49:26;24.83;;;10.20;;
74530;SDS011;63010;55.668;37.878;2022-09-30T02:00:10;17.92;;;9.15;;
74530;SDS011;63010;55.668;37.878;2022-09-30T02:02:47;18.73;;;9.52;;
74530;SDS011;63010;55.668;37.878;2022-09-30T02:05:16;21.45;;;10.38;;
74530;SDS011;63010;55.668;37.878;2022-09-30T02:07:45;19.83;;;10.13;;
74530;SDS011;63010;55.668;37.878;2022-09-30T02:10:23;20.25;;;9.80;;
74530;SDS011;63010;55.668;37.878;2022-09-30T02:15:46;23.60;;;11.13;;
74530;SDS011;63010;55.668;37.878;2022-09-30T02:18:16;23.65;;;10.45;;
74530;SDS011;63010;55.668;37.878;2022-09-30T02:20:54;18.17;;;9.45;;
74530;SDS011;63010;55.668;37.878;2022-09-30T02:23:25;35.42;;;9.68;;
74530;SDS011;63010;55.668;37.878;2022-09-30T02:26:06;28.85;;;9.05;;
74530;SDS011;63010;55.668;37.878;2022-09-30T02:28:38;29.38;;;9.98;;
74530;SDS011;63010;55.668;37.878;2022-09-30T02:31:09;23.27;;;8.18;;
74530;SDS011;63010;55.668;37.878;2022-09-30T02:33:38;20.88;;;8.63;;
74530;SDS011;63010;55.668;37.878;2022-09-30T02:36:19;24.17;;;8.90;;
74530;SDS011;63010;55.668;37.878;2022-09-30T02:39:05;24.02;;;8.68;;
74530;SDS011;63010;55.668;37.878;2022-09-30T02:41:38;37.53;;;8.32;;
74530;SDS011;63010;55.668;37.878;2022-09-30T02:44:14;31.42;;;9.02;;
74530;SDS011;63010;55.668;37.878;2022-09-30T02:46:45;21.60;;;8.70;;
74530;SDS011;63010;55.668;37.878;2022-09-30T02:52:26;30.67;;;8.52;;
74530;SDS011;63010;55.668;37.878;2022-09-30T03:00:09;15.15;;;7.18;;
74530;SDS011;63010;55.668;37.878;2022-09-30T03:02:35;15.50;;;8.27;;
74530;SDS011;63010;55.668;37.878;2022-09-30T03:05:00;20.02;;;8.80;;
74530;SDS011;63010;55.668;37.878;2022-09-30T03:07:29;10.85;;;7.10;;
74530;SDS011;63010;55.668;37.878;2022-09-30T03:09:55;17.70;;;8.48;;
74530;SDS011;63010;55.668;37.878;2022-09-30T03:12:38;16.67;;;8.13;;
74530;SDS011;63010;55.668;37.878;2022-09-30T03:21:07;15.05;;;8.18;;
74530;SDS011;63010;55.668;37.878;2022-09-30T03:32:16;14.75;;;8.35;;
74530;SDS011;63010;55.668;37.878;2022-09-30T03:35:07;14.57;;;8.77;;
74530;SDS011;63010;55.668;37.878;2022-09-30T03:38:11;15.50;;;8.95;;
74530;SDS011;63010;55.668;37.878;2022-09-30T03:41:07;15.15;;;8.80;;
74530;SDS011;63010;55.668;37.878;2022-09-30T03:49:12;13.32;;;8.60;;
74530;SDS011;63010;55.668;37.878;2022-09-30T03:51:42;15.75;;;10.02;;
74530;SDS011;63010;55.668;37.878;2022-09-30T03:54:08;15.65;;;8.95;;
74530;SDS011;63010;55.668;37.878;2022-09-30T03:56:36;15.05;;;8.60;;
74530;SDS011;63010;55.668;37.878;2022-09-30T04:01:35;12.27;;;7.68;;
74530;SDS011;63010;55.668;37.878;2022-09-30T04:04:00;15.65;;;8.60;;
74530;SDS011;63010;55.668;37.878;2022-09-30T04:06:26;13.23;;;8.43;;
74530;SDS011;63010;55.668;37.878;2022-09-30T04:08:52;12.75;;;8.57;;
74530;SDS011;63010;55.668;37.878;2022-09-30T04:11:18;14.93;;;8.55;;
74530;SDS011;63010;55.668;37.878;2022-09-30T04:13:43;15.32;;;9.18;;
74530;SDS011;63010;55.668;37.878;2022-09-30T04:16:09;15.77;;;10.73;;
74530;SDS011;63010;55.668;37.878;2022-09-30T04:18:35;17.50;;;9.63;;
74530;SDS011;63010;55.668;37.878;2022-09-30T04:21:09;20.05;;;13.68;;
74530;SDS011;63010;55.668;37.878;2022-09-30T04:23:37;25.20;;;14.30;;
74530;SDS011;63010;55.668;37.878;2022-09-30T04:26:04;22.83;;;14.35;;
74530;SDS011;63010;55.668;37.878;2022-09-30T04:28:33;21.40;;;14.00;;
74530;SDS011;63010;55.668;37.878;2022-09-30T04:30:59;18.73;;;12.13;;
74530;SDS011;63010;55.668;37.878;2022-09-30T04:33:26;20.05;;;10.70;;
74530;SDS011;63010;55.668;37.878;2022-09-30T04:35:55;16.25;;;11.00;;
74530;SDS011;63010;55.668;37.878;2022-09-30T04:38:22;16.33;;;10.30;;
74530;SDS011;63010;55.668;37.878;2022-09-30T04:40:49;14.13;;;9.38;;
74530;SDS011;63010;55.668;37.878;2022-09-30T04:43:16;13.32;;;8.85;;
74530;SDS011;63010;55.668;37.878;2022-09-30T04:45:46;13.80;;;8.90;;
74530;SDS011;63010;55.668;37.878;2022-09-30T04:48:12;13.20;;;9.02;;
74530;SDS011;63010;55.668;37.878;2022-09-30T04:50:38;15.63;;;9.35;;
74530;SDS011;63010;55.668;37.878;2022-09-30T04:53:05;18.67;;;10.30;;
74530;SDS011;63010;55.668;37.878;2022-09-30T04:55:31;14.75;;;9.80;;
74530;SDS011;63010;55.668;37.878;2022-09-30T04:57:57;16.88;;;10.07;;
74530;SDS011;63010;55.668;37.878;2022-09-30T05:00:22;13.07;;;9.13;;
74530;SDS011;63010;55.668;37.878;2022-09-30T05:05:14;12.18;;;8.43;;
74530;SDS011;63010;55.668;37.878;2022-09-30T05:07:41;14.35;;;9.25;;
74530;SDS011;63010;55.668;37.878;2022-09-30T05:10:08;10.50;;;8.00;;
74530;SDS011;63010;55.668;37.878;2022-09-30T05:12:36;14.68;;;8.50;;
74530;SDS011;63010;55.668;37.878;2022-09-30T05:15:05;13.18;;;9.10;;
74530;SDS011;63010;55.668;37.878;2022-09-30T05:17:32;14.95;;;9.63;;
74530;SDS011;63010;55.668;37.878;2022-09-30T05:19:57;14.43;;;9.15;;
74530;SDS011;63010;55.668;37.878;2022-09-30T05:22:23;14.30;;;9.70;;
74530;SDS011;63010;55.668;37.878;2022-09-30T05:24:50;14.85;;;9.63;;
74530;SDS011;63010;55.668;37.878;2022-09-30T05:27:17;15.00;;;8.75;;
74530;SDS011;63010;55.668;37.878;2022-09-30T05:29:43;15.35;;;9.80;;
74530;SDS011;63010;55.668;37.878;2022-09-30T05:32:09;19.52;;;13.77;;
74530;SDS011;63010;55.668;37.878;2022-09-30T05:34:34;20.65;;;13.80;;
74530;SDS011;63010;55.668;37.878;2022-09-30T05:37:02;24.20;;;15.77;;
74530;SDS011;63010;55.668;37.878;2022-09-30T05:39:28;23.83;;;15.25;;
74530;SDS011;63010;55.668;37.878;2022-09-30T05:41:55;26.48;;;15.82;;
74530;SDS011;63010;55.668;37.878;2022-09-30T05:44:21;22.63;;;16.23;;
74530;SDS011;63010;55.668;37.878;2022-09-30T05:46:47;24.35;;;15.60;;
74530;SDS011;63010;55.668;37.878;2022-09-30T05:49:12;25.75;;;16.80;;
74530;SDS011;63010;55.668;37.878;2022-09-30T05:51:38;22.15;;;15.27;;
74530;SDS011;63010;55.668;37.878;2022-09-30T05:54:04;24.27;;;14.00;;
74530;SDS011;63010;55.668;37.878;2022-09-30T05:56:30;20.05;;;13.30;;
74530;SDS011;63010;55.668;37.878;2022-09-30T05:58:55;17.65;;;11.65;;
74530;SDS011;63010;55.668;37.878;2022-09-30T06:01:21;18.80;;;11.63;;
74530;SDS011;63010;55.668;37.878;2022-09-30T06:03:47;15.95;;;11.00;;
74530;SDS011;63010;55.668;37.878;2022-09-30T06:06:13;16.65;;;10.73;;
74530;SDS011;63010;55.668;37.878;2022-09-30T06:08:40;15.60;;;10.45;;
74530;SDS011;63010;55.668;37.878;2022-09-30T06:11:23;14.75;;;9.98;;
74530;SDS011;63010;55.668;37.878;2022-09-30T06:13:49;13.77;;;9.13;;
74530;SDS011;63010;55.668;37.878;2022-09-30T06:16:15;13.70;;;8.73;;
74530;SDS011;63010;55.668;37.878;2022-09-30T06:18:45;12.20;;;9.07;;
74530;SDS011;63010;55.668;37.878;2022-09-30T06:21:12;13.07;;;8.93;;
74530;SDS011;63010;55.668;37.878;2022-09-30T06:23:39;15.15;;;8.90;;
74530;SDS011;63010;55.668;37.878;2022-09-30T06:26:07;15.27;;;8.70;;
74530;SDS011;63010;55.668;37.878;2022-09-30T06:28:35;14.23;;;9.65;;
74530;SDS011;63010;55.668;37.878;2022-09-30T06:31:02;15.68;;;8.88;;
74530;SDS011;63010;55.668;37.878;2022-09-30T06:35:53;13.15;;;8.27;;
74530;SDS011;63010;55.668;37.878;2022-09-30T06:38:19;14.15;;;8.57;;
74530;SDS011;63010;55.668;37.878;2022-09-30T06:40:47;17.38;;;9.50;;
74530;SDS011;63010;55.668;37.878;2022-09-30T06:43:14;18.92;;;9.48;;
74530;SDS011;63010;55.668;37.878;2022-09-30T06:45:46;15.25;;;9.45;;
74530;SDS011;63010;55.668;37.878;2022-09-30T06:48:15;13.32;;;9.25;;
74530;SDS011;63010;55.668;37.878;2022-09-30T06:50:42;16.45;;;9.68;;
74530;SDS011;63010;55.668;37.878;2022-09-30T06:55:36;17.33;;;10.70;;
74530;SDS011;63010;55.668;37.878;2022-09-30T06:58:03;17.63;;;10.48;;
74530;SDS011;63010;55.668;37.878;2022-09-30T07:00:32;16.98;;;10.32;;
74530;SDS011;63010;55.668;37.878;2022-09-30T07:02:57;15.60;;;10.15;;
74530;SDS011;63010;55.668;37.878;2022-09-30T07:05:23;17.45;;;9.93;;
74530;SDS011;63010;55.668;37.878;2022-09-30T07:07:52;16.40;;;10.85;;
74530;SDS011;63010;55.668;37.878;2022-09-30T07:10:18;16.85;;;9.93;;
74530;SDS011;63010;55.668;37.878;2022-09-30T07:12:47;21.15;;;11.15;;
74530;SDS011;63010;55.668;37.878;2022-09-30T07:15:15;16.10;;;11.05;;
74530;SDS011;63010;55.668;37.878;2022-09-30T07:17:41;18.50;;;10.27;;
74530;SDS011;63010;55.668;37.878;2022-09-30T07:20:08;16.85;;;10.38;;
74530;SDS011;63010;55.668;37.878;2022-09-30T07:22:33;17.00;;;10.25;;
74530;SDS011;63010;55.668;37.878;2022-09-30T07:25:00;15.98;;;11.13;;
74530;SDS011;63010;55.668;37.878;2022-09-30T07:27:30;22.15;;;10.95;;
74530;SDS011;63010;55.668;37.878;2022-09-30T07:29:57;15.35;;;9.57;;
74530;SDS011;63010;55.668;37.878;2022-09-30T07:32:23;19.83;;;10.55;;
74530;SDS011;63010;55.668;37.878;2022-09-30T07:34:49;24.95;;;12.10;;
74530;SDS011;63010;55.668;37.878;2022-09-30T07:37:16;19.88;;;9.80;;
74530;SDS011;63010;55.668;37.878;2022-09-30T07:39:44;14.98;;;10.57;;
74530;SDS011;63010;55.668;37.878;2022-09-30T07:42:11;18.58;;;10.77;;
74530;SDS011;63010;55.668;37.878;2022-09-30T07:44:38;13.63;;;9.07;;
74530;SDS011;63010;55.668;37.878;2022-09-30T07:47:08;15.68;;;10.65;;
74530;SDS011;63010;55.668;37.878;2022-09-30T07:49:35;15.00;;;11.00;;
74530;SDS011;63010;55.668;37.878;2022-09-30T07:52:01;18.95;;;10.73;;
74530;SDS011;63010;55.668;37.878;2022-09-30T07:54:28;18.23;;;10.20;;
74530;SDS011;63010;55.668;37.878;2022-09-30T07:56:55;16.50;;;10.77;;
74530;SDS011;63010;55.668;37.878;2022-09-30T07:59:22;15.68;;;10.88;;
74530;SDS011;63010;55.668;37.878;2022-09-30T08:01:48;14.38;;;10.30;;
74530;SDS011;63010;55.668;37.878;2022-09-30T08:04:15;15.10;;;10.27;;
74530;SDS011;63010;55.668;37.878;2022-09-30T08:06:43;16.15;;;10.32;;
74530;SDS011;63010;55.668;37.878;2022-09-30T08:09:11;14.45;;;9.90;;
74530;SDS011;63010;55.668;37.878;2022-09-30T08:11:38;19.10;;;11.30;;
74530;SDS011;63010;55.668;37.878;2022-09-30T08:14:05;18.65;;;9.23;;
74530;SDS011;63010;55.668;37.878;2022-09-30T08:16:31;16.92;;;10.02;;
74530;SDS011;63010;55.668;37.878;2022-09-30T08:18:57;14.73;;;10.05;;
74530;SDS011;63010;55.668;37.878;2022-09-30T08:21:24;17.48;;;11.30;;
74530;SDS011;63010;55.668;37.878;2022-09-30T08:23:50;22.65;;;10.57;;
74530;SDS011;63010;55.668;37.878;2022-09-30T08:26:16;17.45;;;9.95;;
74530;SDS011;63010;55.668;37.878;2022-09-30T08:28:42;18.23;;;12.07;;
74530;SDS011;63010;55.668;37.878;2022-09-30T08:31:12;16.77;;;11.63;;
74530;SDS011;63010;55.668;37.878;2022-09-30T08:33:43;22.20;;;13.27;;
74530;SDS011;63010;55.668;37.878;2022-09-30T08:36:10;16.33;;;10.88;;
74530;SDS011;63010;55.668;37.878;2022-09-30T08:38:37;21.73;;;10.68;;
74530;SDS011;63010;55.668;37.878;2022-09-30T08:49:48;18.15;;;11.18;;
74530;SDS011;63010;55.668;37.878;2022-09-30T08:52:36;17.58;;;10.40;;
74530;SDS011;63010;55.668;37.878;2022-09-30T08:55:05;18.80;;;11.50;;
74530;SDS011;63010;55.668;37.878;2022-09-30T08:57:38;17.58;;;11.55;;
74530;SDS011;63010;55.668;37.878;2022-09-30T09:00:10;17.55;;;12.00;;
74530;SDS011;63010;55.668;37.878;2022-09-30T09:05:27;17.80;;;12.38;;
74530;SDS011;63010;55.668;37.878;2022-09-30T09:10:50;21.95;;;11.77;;
74530;SDS011;63010;55.668;37.878;2022-09-30T09:16:33;20.48;;;13.05;;
74530;SDS011;63010;55.668;37.878;2022-09-30T09:19:09;19.52;;;11.43;;
74530;SDS011;63010;55.668;37.878;2022-09-30T09:24:34;22.00;;;11.18;;
74530;SDS011;63010;55.668;37.878;2022-09-30T09:27:11;15.85;;;11.13;;
74530;SDS011;63010;55.668;37.878;2022-09-30T09:30:08;21.08;;;12.38;;
74530;SDS011;63010;55.668;37.878;2022-09-30T09:32:37;22.52;;;12.57;;
74530;SDS011;63010;55.668;37.878;2022-09-30T09:35:14;20.35;;;12.63;;
74530;SDS011;63010;55.668;37.878;2022-09-30T09:37:45;19.73;;;11.90;;
74530;SDS011;63010;55.668;37.878;2022-09-30T09:46:23;26.40;;;15.40;;
74530;SDS011;63010;55.668;37.878;2022-09-30T09:54:20;26.48;;;14.65;;
74530;SDS011;63010;55.668;37.878;2022-09-30T09:56:47;25.35;;;14.75;;
74530;SDS011;63010;55.668;37.878;2022-09-30T09:59:15;18.50;;;12.27;;
74530;SDS011;63010;55.668;37.878;2022-09-30T10:01:43;23.05;;;13.63;;
74530;SDS011;63010;55.668;37.878;2022-09-30T10:06:54;19.50;;;13.50;;
74530;SDS011;63010;55.668;37.878;2022-09-30T10:12:17;20.27;;;13.10;;
74530;SDS011;63010;55.668;37.878;2022-09-30T10:14:58;21.50;;;12.60;;
74530;SDS011;63010;55.668;37.878;2022-09-30T10:17:31;21.48;;;13.48;;
74530;SDS011;63010;55.668;37.878;2022-09-30T10:20:00;27.90;;;13.18;;
74530;SDS011;63010;55.668;37.878;2022-09-30T10:22:31;20.92;;;12.38;;
74530;SDS011;63010;55.668;37.878;2022-09-30T10:33:03;19.23;;;12.70;;
74530;SDS011;63010;55.668;37.878;2022-09-30T10:36:40;20.63;;;12.98;;
74530;SDS011;63010;55.668;37.878;2022-09-30T10:38:44;18.50;;;12.40;;
74530;SDS011;63010;55.668;37.878;2022-09-30T10:41:13;18.10;;;12.27;;
74530;SDS011;63010;55.668;37.878;2022-09-30T10:43:48;18.45;;;12.00;;
74530;SDS011;63010;55.668;37.878;2022-09-30T10:46:23;18.40;;;10.77;;
74530;SDS011;63010;55.668;37.878;2022-09-30T10:48:52;16.45;;;10.55;;
74530;SDS011;63010;55.668;37.878;2022-09-30T10:51:23;18.15;;;11.40;;
74530;SDS011;63010;55.668;37.878;2022-09-30T10:54:00;18.25;;;11.13;;
74530;SDS011;63010;55.668;37.878;2022-09-30T10:56:37;21.55;;;13.18;;
74530;SDS011;63010;55.668;37.878;2022-09-30T10:59:13;18.55;;;11.27;;
74530;SDS011;63010;55.668;37.878;2022-09-30T11:01:51;17.10;;;11.77;;
74530;SDS011;63010;55.668;37.878;2022-09-30T11:09:55;18.60;;;10.57;;
74530;SDS011;63010;55.668;37.878;2022-09-30T11:20:25;15.00;;;10.90;;
74530;SDS011;63010;55.668;37.878;2022-09-30T11:25:35;16.52;;;10.15;;
74530;SDS011;63010;55.668;37.878;2022-09-30T11:28:12;19.58;;;10.60;;
74530;SDS011;63010;55.668;37.878;2022-09-30T11:47:01;12.82;;;9.40;;
74530;SDS011;63010;55.668;37.878;2022-09-30T11:49:58;14.43;;;10.02;;
74530;SDS011;63010;55.668;37.878;2022-09-30T11:58:22;12.35;;;8.95;;
74530;SDS011;63010;55.668;37.878;2022-09-30T12:03:57;13.43;;;9.30;;
74530;SDS011;63010;55.668;37.878;2022-09-30T12:06:37;13.90;;;9.63;;
74530;SDS011;63010;55.668;37.878;2022-09-30T12:12:08;14.02;;;9.05;;
74530;SDS011;63010;55.668;37.878;2022-09-30T12:19:55;15.73;;;10.70;;
74530;SDS011;63010;55.668;37.878;2022-09-30T12:22:28;13.57;;;9.85;;
74530;SDS011;63010;55.668;37.878;2022-09-30T12:24:59;16.02;;;11.13;;
74530;SDS011;63010;55.668;37.878;2022-09-30T12:27:38;11.75;;;8.82;;
74530;SDS011;63010;55.668;37.878;2022-09-30T12:30:13;16.73;;;10.98;;
74530;SDS011;63010;55.668;37.878;2022-09-30T12:41:05;11.65;;;8.40;;
74530;SDS011;63010;55.668;37.878;2022-09-30T12:48:59;12.98;;;10.20;;
74530;SDS011;63010;55.668;37.878;2022-09-30T12:51:30;16.33;;;11.00;;
74530;SDS011;63010;55.668;37.878;2022-09-30T12:53:59;16.02;;;10.52;;
74530;SDS011;63010;55.668;37.878;2022-09-30T12:56:29;18.15;;;10.30;;
74530;SDS011;63010;55.668;37.878;2022-09-30T12:58:58;15.32;;;9.68;;
74530;SDS011;63010;55.668;37.878;2022-09-30T13:01:26;16.35;;;10.25;;
74530;SDS011;63010;55.668;37.878;2022-09-30T13:06:21;14.45;;;11.30;;
74530;SDS011;63010;55.668;37.878;2022-09-30T13:11:32;17.30;;;11.35;;
74530;SDS011;63010;55.668;37.878;2022-09-30T13:19:36;16.85;;;10.60;;
74530;SDS011;63010;55.668;37.878;2022-09-30T13:32:44;20.30;;;13.25;;
74530;SDS011;63010;55.668;37.878;2022-09-30T13:40:56;19.65;;;12.63;;
74530;SDS011;63010;55.668;37.878;2022-09-30T13:43:33;20.23;;;13.05;;
74530;SDS011;63010;55.668;37.878;2022-09-30T13:46:03;17.27;;;12.20;;
74530;SDS011;63010;55.668;37.878;2022-09-30T13:48:33;18.20;;;13.25;;
74530;SDS011;63010;55.668;37.878;2022-09-30T13:51:02;16.85;;;12.40;;
74530;SDS011;63010;55.668;37.878;2022-09-30T13:53:39;18.58;;;13.50;;
74530;SDS011;63010;55.668;37.878;2022-09-30T13:56:15;17.50;;;13.10;;
74530;SDS011;63010;55.668;37.878;2022-09-30T14:06:39;20.38;;;14.85;;
74530;SDS011;63010;55.668;37.878;2022-09-30T14:12:07;20.02;;;15.50;;
74530;SDS011;63010;55.668;37.878;2022-09-30T14:22:29;23.13;;;14.48;;
74530;SDS011;63010;55.668;37.878;2022-09-30T14:24:55;24.45;;;16.02;;
74530;SDS011;63010;55.668;37.878;2022-09-30T14:32:57;22.25;;;15.85;;
74530;SDS011;63010;55.668;37.878;2022-09-30T14:35:27;21.08;;;15.38;;
74530;SDS011;63010;55.668;37.878;2022-09-30T14:40:52;19.67;;;14.73;;
74530;SDS011;63010;55.668;37.878;2022-09-30T14:43:22;23.02;;;16.02;;
74530;SDS011;63010;55.668;37.878;2022-09-30T14:45:53;19.73;;;14.27;;
74530;SDS011;63010;55.668;37.878;2022-09-30T14:48:25;19.25;;;13.93;;
74530;SDS011;63010;55.668;37.878;2022-09-30T14:53:32;20.55;;;14.90;;
74530;SDS011;63010;55.668;37.878;2022-09-30T14:55:59;21.85;;;14.32;;
74530;SDS011;63010;55.668;37.878;2022-09-30T14:58:36;20.55;;;15.23;;
74530;SDS011;63010;55.668;37.878;2022-09-30T15:01:13;22.73;;;14.77;;
74530;SDS011;63010;55.668;37.878;2022-09-30T15:03:57;19.77;;;13.60;;
74530;SDS011;63010;55.668;37.878;2022-09-30T15:06:30;23.73;;;16.85;;
74530;SDS011;63010;55.668;37.878;2022-09-30T15:09:22;19.52;;;13.95;;
74530;SDS011;63010;55.668;37.878;2022-09-30T15:11:52;17.20;;;11.85;;
74530;SDS011;63010;55.668;37.878;2022-09-30T15:14:19;17.98;;;12.90;;
74530;SDS011;63010;55.668;37.878;2022-09-30T15:19:22;20.67;;;12.50;;
74530;SDS011;63010;55.668;37.878;2022-09-30T15:21:52;16.48;;;11.85;;
74530;SDS011;63010;55.668;37.878;2022-09-30T15:24:20;19.27;;;12.77;;
74530;SDS011;63010;55.668;37.878;2022-09-30T15:26:48;17.45;;;11.65;;
74530;SDS011;63010;55.668;37.878;2022-09-30T15:29:16;17.02;;;11.18;;
74530;SDS011;63010;55.668;37.878;2022-09-30T15:31:45;19.30;;;11.38;;
74530;SDS011;63010;55.668;37.878;2022-09-30T15:36:40;21.48;;;11.00;;
74530;SDS011;63010;55.668;37.878;2022-09-30T15:39:15;18.33;;;11.32;;
74530;SDS011;63010;55.668;37.878;2022-09-30T15:41:50;13.68;;;10.27;;
74530;SDS011;63010;55.668;37.878;2022-09-30T15:44:17;16.15;;;11.60;;
74530;SDS011;63010;55.668;37.878;2022-09-30T15:47:02;18.00;;;11.75;;
74530;SDS011;63010;55.668;37.878;2022-09-30T15:49:32;15.93;;;11.98;;
74530;SDS011;63010;55.668;37.878;2022-09-30T15:54:52;17.67;;;12.40;;
74530;SDS011;63010;55.668;37.878;2022-09-30T15:57:38;17.38;;;12.68;;
74530;SDS011;63010;55.668;37.878;2022-09-30T16:03:16;18.52;;;13.45;;
74530;SDS011;63010;55.668;37.878;2022-09-30T16:05:48;19.65;;;13.77;;
74530;SDS011;63010;55.668;37.878;2022-09-30T16:08:23;18.92;;;12.88;;
74530;SDS011;63010;55.668;37.878;2022-09-30T16:10:52;19.60;;;12.27;;
74530;SDS011;63010;55.668;37.878;2022-09-30T16:13:20;21.38;;;13.45;;
74530;SDS011;63010;55.668;37.878;2022-09-30T16:15:50;18.52;;;12.57;;
74530;SDS011;63010;55.668;37.878;2022-09-30T16:18:20;25.10;;;13.68;;
74530;SDS011;63010;55.668;37.878;2022-09-30T16:20:56;18.50;;;13.88;;
74530;SDS011;63010;55.668;37.878;2022-09-30T16:23:36;21.00;;;13.23;;
74530;SDS011;63010;55.668;37.878;2022-09-30T16:28:40;22.52;;;15.18;;
74530;SDS011;63010;55.668;37.878;2022-09-30T16:31:09;21.80;;;14.98;;
74530;SDS011;63010;55.668;37.878;2022-09-30T16:33:37;20.30;;;14.38;;
74530;SDS011;63010;55.668;37.878;2022-09-30T16:36:07;22.80;;;14.18;;
74530;SDS011;63010;55.668;37.878;2022-09-30T16:38:34;21.13;;;13.82;;
74530;SDS011;63010;55.668;37.878;2022-09-30T16:41:03;21.67;;;14.27;;
74530;SDS011;63010;55.668;37.878;2022-09-30T16:43:29;23.33;;;14.30;;
74530;SDS011;63010;55.668;37.878;2022-09-30T16:45:58;21.58;;;13.73;;
74530;SDS011;63010;55.668;37.878;2022-09-30T16:48:24;22.95;;;13.75;;
74530;SDS011;63010;55.668;37.878;2022-09-30T16:51:01;25.17;;;14.18;;
74530;SDS011;63010;55.668;37.878;2022-09-30T16:53:41;22.65;;;13.73;;
74530;SDS011;63010;55.668;37.878;2022-09-30T16:56:13;23.95;;;14.85;;
74530;SDS011;63010;55.668;37.878;2022-09-30T16:58:41;25.48;;;15.05;;
74530;SDS011;63010;55.668;37.878;2022-09-30T17:01:25;27.20;;;16.73;;
74530;SDS011;63010;55.668;37.878;2022-09-30T17:03:51;23.23;;;15.90;;
74530;SDS011;63010;55.668;37.878;2022-09-30T17:06:20;26.92;;;14.48;;
74530;SDS011;63010;55.668;37.878;2022-09-30T17:08:51;24.63;;;16.17;;
74530;SDS011;63010;55.668;37.878;2022-09-30T17:11:17;22.17;;;13.73;;
74530;SDS011;63010;55.668;37.878;2022-09-30T17:13:44;23.38;;;14.50;;
74530;SDS011;63010;55.668;37.878;2022-09-30T17:18:36;22.92;;;14.52;;
74530;SDS011;63010;55.668;37.878;2022-09-30T17:21:02;25.40;;;14.60;;
74530;SDS011;63010;55.668;37.878;2022-09-30T17:23:28;27.25;;;14.25;;
74530;SDS011;63010;55.668;37.878;2022-09-30T17:25:53;23.85;;;14.77;;
74530;SDS011;63010;55.668;37.878;2022-09-30T17:28:19;24.65;;;15.48;;
74530;SDS011;63010;55.668;37.878;2022-09-30T17:30:46;25.60;;;15.13;;
74530;SDS011;63010;55.668;37.878;2022-09-30T17:33:13;23.55;;;14.60;;
74530;SDS011;63010;55.668;37.878;2022-09-30T17:35:39;26.48;;;16.02;;
74530;SDS011;63010;55.668;37.878;2022-09-30T17:38:06;25.35;;;15.07;;
74530;SDS011;63010;55.668;37.878;2022-09-30T17:40:32;27.90;;;14.52;;
74530;SDS011;63010;55.668;37.878;2022-09-30T17:43:16;24.05;;;14.70;;
74530;SDS011;63010;55.668;37.878;2022-09-30T17:45:42;26.08;;;15.63;;
74530;SDS011;63010;55.668;37.878;2022-09-30T17:48:10;30.80;;;16.17;;
74530;SDS011;63010;55.668;37.878;2022-09-30T17:50:38;25.33;;;14.70;;
74530;SDS011;63010;55.668;37.878;2022-09-30T17:53:06;27.75;;;16.10;;
74530;SDS011;63010;55.668;37.878;2022-09-30T17:55:32;25.35;;;15.85;;
74530;SDS011;63010;55.668;37.878;2022-09-30T17:57:59;29.08;;;16.95;;
74530;SDS011;63010;55.668;37.878;2022-09-30T18:00:27;24.95;;;15.25;;
74530;SDS011;63010;55.668;37.878;2022-09-30T18:02:54;26.88;;;16.58;;
74530;SDS011;63010;55.668;37.878;2022-09-30T18:05:19;24.83;;;15.98;;
74530;SDS011;63010;55.668;37.878;2022-09-30T18:07:45;26.65;;;15.65;;
74530;SDS011;63010;55.668;37.878;2022-09-30T18:10:11;27.45;;;17.42;;
74530;SDS011;63010;55.668;37.878;2022-09-30T18:12:37;26.27;;;15.98;;
74530;SDS011;63010;55.668;37.878;2022-09-30T18:17:30;25.95;;;15.38;;
74530;SDS011;63010;55.668;37.878;2022-09-30T18:19:55;26.50;;;15.50;;
74530;SDS011;63010;55.668;37.878;2022-09-30T18:22:21;33.55;;;16.20;;
74530;SDS011;63010;55.668;37.878;2022-09-30T18:24:47;28.30;;;15.35;;
74530;SDS011;63010;55.668;37.878;2022-09-30T18:30:02;30.05;;;17.25;;
74530;SDS011;63010;55.668;37.878;2022-09-30T18:32:31;32.33;;;16.65;;
74530;SDS011;63010;55.668;37.878;2022-09-30T18:34:57;27.75;;;17.33;;
74530;SDS011;63010;55.668;37.878;2022-09-30T18:37:23;30.92;;;19.30;;
74530;SDS011;63010;55.668;37.878;2022-09-30T18:39:49;28.70;;;17.40;;
74530;SDS011;63010;55.668;37.878;2022-09-30T18:42:15;26.98;;;16.35;;
74530;SDS011;63010;55.668;37.878;2022-09-30T18:44:44;27.75;;;15.70;;
74530;SDS011;63010;55.668;37.878;2022-09-30T18:47:15;28.88;;;17.05;;
74530;SDS011;63010;55.668;37.878;2022-09-30T18:49:42;29.67;;;16.67;;
74530;SDS011;63010;55.668;37.878;2022-09-30T18:52:08;28.02;;;16.83;;